createdAt,value
2018-07-16T00:00:17.228Z,999.15
2018-07-16T00:01:17.224Z,999.18
2018-07-16T00:02:17.221Z,999.17
2018-07-16T00:03:17.220Z,999.15
2018-07-16T00:04:17.213Z,999.16
2018-07-16T00:05:17.210Z,999.17
2018-07-16T00:06:17.207Z,999.15
2018-07-16T00:07:17.204Z,999.15
2018-07-16T00:08:17.204Z,999.13
2018-07-16T00:09:17.197Z,999.14
2018-07-16T00:10:17.193Z,999.16
2018-07-16T00:11:17.190Z,999.17
2018-07-16T00:12:17.186Z,999.13
2018-07-16T00:13:17.183Z,999.17
2018-07-16T00:14:17.181Z,999.15
2018-07-16T00:15:17.176Z,999.17
2018-07-16T00:16:17.172Z,999.15
2018-07-16T00:17:17.169Z,999.17
2018-07-16T00:18:17.165Z,999.15
2018-07-16T00:19:17.161Z,999.15
2018-07-16T00:20:17.157Z,999.14
2018-07-16T00:21:17.154Z,999.19
2018-07-16T00:22:17.150Z,999.13
2018-07-16T00:23:17.148Z,999.14
2018-07-16T00:24:17.143Z,999.10
2018-07-16T00:25:17.140Z,999.10
2018-07-16T00:26:17.136Z,999.08
2018-07-16T00:27:17.132Z,999.08
2018-07-16T00:28:17.128Z,999.04
2018-07-16T00:29:17.124Z,999.05
2018-07-16T00:30:17.121Z,999.04
2018-07-16T00:31:17.118Z,999.04
2018-07-16T00:32:17.113Z,999.05
2018-07-16T00:33:17.110Z,999.04
2018-07-16T00:34:17.108Z,999.04
2018-07-16T00:35:17.102Z,999.01
2018-07-16T00:36:17.099Z,999.02
2018-07-16T00:37:17.095Z,999.01
2018-07-16T00:38:17.091Z,998.98
2018-07-16T00:39:17.088Z,998.96
2018-07-16T00:40:17.083Z,998.95
2018-07-16T00:41:17.079Z,999.00
2018-07-16T00:42:17.078Z,998.96
2018-07-16T00:43:17.072Z,999.02
2018-07-16T00:44:17.128Z,998.95
2018-07-16T00:45:17.078Z,998.95
2018-07-16T00:46:17.060Z,998.93
2018-07-16T00:47:17.057Z,998.91
2018-07-16T00:48:17.052Z,998.92
2018-07-16T00:49:17.048Z,998.92
2018-07-16T00:50:17.045Z,998.92
2018-07-16T00:51:17.041Z,998.94
2018-07-16T00:52:17.038Z,998.91
2018-07-16T00:53:17.033Z,998.87
2018-07-16T00:54:17.035Z,998.90
2018-07-16T00:55:17.025Z,998.88
2018-07-16T00:56:17.066Z,998.89
2018-07-16T00:57:17.017Z,998.87
2018-07-16T00:58:17.013Z,998.84
2018-07-16T00:59:17.010Z,998.83
2018-07-16T01:00:17.005Z,998.85
2018-07-16T01:01:17.001Z,998.88
2018-07-16T01:02:16.998Z,998.83
2018-07-16T01:03:16.994Z,998.80
2018-07-16T01:04:16.992Z,998.80
2018-07-16T01:05:16.984Z,998.80
2018-07-16T01:06:16.981Z,998.80
2018-07-16T01:07:16.977Z,998.79
2018-07-16T01:08:16.972Z,998.78
2018-07-16T01:09:16.968Z,998.81
2018-07-16T01:10:16.964Z,998.77
2018-07-16T01:11:16.960Z,998.76
2018-07-16T01:12:16.955Z,998.76
2018-07-16T01:13:16.951Z,998.72
2018-07-16T01:14:16.946Z,998.70
2018-07-16T01:15:16.942Z,998.71
2018-07-16T01:16:16.937Z,998.70
2018-07-16T01:17:16.935Z,998.72
2018-07-16T01:18:16.929Z,998.73
2018-07-16T01:19:16.925Z,998.74
2018-07-16T01:20:16.920Z,998.77
2018-07-16T01:21:16.916Z,998.76
2018-07-16T01:22:16.911Z,998.77
2018-07-16T01:23:16.907Z,998.74
2018-07-16T01:24:16.902Z,998.75
2018-07-16T01:25:16.898Z,998.78
2018-07-16T01:26:16.898Z,998.74
2018-07-16T01:27:16.890Z,998.76
2018-07-16T01:28:16.884Z,998.74
2018-07-16T01:29:16.880Z,998.74
2018-07-16T01:30:16.876Z,998.76
2018-07-16T01:31:16.872Z,998.71
2018-07-16T01:32:16.867Z,998.75
2018-07-16T01:33:16.864Z,998.70
2018-07-16T01:34:16.859Z,998.72
2018-07-16T01:35:16.854Z,998.68
2018-07-16T01:36:16.849Z,998.69
2018-07-16T01:37:16.845Z,998.70
2018-07-16T01:38:16.841Z,998.67
2018-07-16T01:39:16.839Z,998.70
2018-07-16T01:40:16.831Z,998.70
2018-07-16T01:41:16.826Z,998.67
2018-07-16T01:42:16.824Z,998.65
2018-07-16T01:43:16.818Z,998.66
2018-07-16T01:44:16.813Z,998.66
2018-07-16T01:45:16.808Z,998.63
2018-07-16T01:46:16.804Z,998.64
2018-07-16T01:47:16.800Z,998.65
2018-07-16T01:48:16.795Z,998.61
2018-07-16T01:49:16.791Z,998.62
2018-07-16T01:50:16.789Z,998.63
2018-07-16T01:51:16.787Z,998.61
2018-07-16T01:52:16.777Z,998.63
2018-07-16T01:53:16.773Z,998.64
2018-07-16T01:54:16.770Z,998.62
2018-07-16T01:55:16.764Z,998.65
2018-07-16T01:56:16.759Z,998.63
2018-07-16T01:57:16.754Z,998.62
2018-07-16T01:58:16.750Z,998.63
2018-07-16T01:59:16.746Z,998.62
2018-07-16T02:00:16.740Z,998.64
2018-07-16T02:01:16.736Z,998.59
2018-07-16T02:02:16.733Z,998.61
2018-07-16T02:03:16.727Z,998.61
2018-07-16T02:04:16.722Z,998.61
2018-07-16T02:05:16.717Z,998.58
2018-07-16T02:06:16.714Z,998.55
2018-07-16T02:07:16.710Z,998.56
2018-07-16T02:08:16.705Z,998.52
2018-07-16T02:09:16.698Z,998.52
2018-07-16T02:10:16.695Z,998.49
2018-07-16T02:11:16.690Z,998.53
2018-07-16T02:12:16.684Z,998.51
2018-07-16T02:13:16.679Z,998.48
2018-07-16T02:14:16.678Z,998.48
2018-07-16T02:15:16.671Z,998.48
2018-07-16T02:16:16.665Z,998.42
2018-07-16T02:17:16.666Z,998.43
2018-07-16T02:18:16.656Z,998.44
2018-07-16T02:19:16.651Z,998.44
2018-07-16T02:20:16.646Z,998.37
2018-07-16T02:21:16.645Z,998.39
2018-07-16T02:22:16.637Z,998.39
2018-07-16T02:23:16.634Z,998.35
2018-07-16T02:24:16.627Z,998.38
2018-07-16T02:25:16.622Z,998.35
2018-07-16T02:26:16.619Z,998.33
2018-07-16T02:27:16.619Z,998.38
2018-07-16T02:28:16.607Z,998.32
2018-07-16T02:29:16.602Z,998.35
2018-07-16T02:30:16.599Z,998.37
2018-07-16T02:31:16.594Z,998.31
2018-07-16T02:32:16.588Z,998.32
2018-07-16T02:33:16.583Z,998.30
2018-07-16T02:34:16.581Z,998.30
2018-07-16T02:35:16.573Z,998.30
2018-07-16T02:36:16.568Z,998.34
2018-07-16T02:37:16.563Z,998.29
2018-07-16T02:38:16.558Z,998.25
2018-07-16T02:39:16.554Z,998.28
2018-07-16T02:40:16.547Z,998.26
2018-07-16T02:41:16.543Z,998.29
2018-07-16T02:42:16.539Z,998.27
2018-07-16T02:43:16.533Z,998.28
2018-07-16T02:44:16.528Z,998.25
2018-07-16T02:45:16.530Z,998.29
2018-07-16T02:46:16.517Z,998.28
2018-07-16T02:47:16.513Z,998.28
2018-07-16T02:48:16.511Z,998.26
2018-07-16T02:49:16.506Z,998.30
2018-07-16T02:50:16.498Z,998.31
2018-07-16T02:51:16.492Z,998.30
2018-07-16T02:52:16.486Z,998.28
2018-07-16T02:53:16.482Z,998.30
2018-07-16T02:54:16.476Z,998.32
2018-07-16T02:55:16.478Z,998.33
2018-07-16T02:56:16.486Z,998.34
2018-07-16T02:57:16.461Z,998.32
2018-07-16T02:58:16.459Z,998.32
2018-07-16T02:59:16.452Z,998.32
2018-07-16T03:00:16.446Z,998.32
2018-07-16T03:01:16.441Z,998.30
2018-07-16T03:02:16.440Z,998.34
2018-07-16T03:03:16.432Z,998.33
2018-07-16T03:04:16.425Z,998.33
2018-07-16T03:05:16.420Z,998.29
2018-07-16T03:06:16.419Z,998.34
2018-07-16T03:07:16.412Z,998.33
2018-07-16T03:08:16.409Z,998.35
2018-07-16T03:09:16.401Z,998.33
2018-07-16T03:10:16.394Z,998.36
2018-07-16T03:11:16.390Z,998.31
2018-07-16T03:12:16.400Z,998.33
2018-07-16T03:13:16.383Z,998.33
2018-07-16T03:14:16.374Z,998.34
2018-07-16T03:15:16.369Z,998.33
2018-07-16T03:16:16.371Z,998.39
2018-07-16T03:17:16.358Z,998.34
2018-07-16T03:18:16.353Z,998.33
2018-07-16T03:19:16.348Z,998.34
2018-07-16T03:20:16.342Z,998.32
2018-07-16T03:21:16.337Z,998.30
2018-07-16T03:22:16.332Z,998.33
2018-07-16T03:23:16.532Z,998.35
2018-07-16T03:24:16.322Z,998.34
2018-07-16T03:25:16.316Z,998.33
2018-07-16T03:26:16.311Z,998.35
2018-07-16T03:27:16.309Z,998.32
2018-07-16T03:28:16.301Z,998.34
2018-07-16T03:29:16.294Z,998.38
2018-07-16T03:30:16.289Z,998.36
2018-07-16T03:31:16.285Z,998.33
2018-07-16T03:32:16.278Z,998.38
2018-07-16T03:33:16.281Z,998.40
2018-07-16T03:34:16.272Z,998.38
2018-07-16T03:35:16.263Z,998.39
2018-07-16T03:36:16.465Z,998.38
2018-07-16T03:37:16.250Z,998.42
2018-07-16T03:38:16.246Z,998.40
2018-07-16T03:39:16.241Z,998.39
2018-07-16T03:40:16.233Z,998.39
2018-07-16T03:41:16.230Z,998.40
2018-07-16T03:42:16.224Z,998.38
2018-07-16T03:43:16.425Z,998.38
2018-07-16T03:44:16.212Z,998.38
2018-07-16T03:45:16.409Z,998.39
2018-07-16T03:46:16.202Z,998.37
2018-07-16T03:47:16.196Z,998.38
2018-07-16T03:48:16.190Z,998.37
2018-07-16T03:49:16.193Z,998.37
2018-07-16T03:50:16.186Z,998.38
2018-07-16T03:51:16.174Z,998.39
2018-07-16T03:52:16.172Z,998.35
2018-07-16T03:53:16.163Z,998.36
2018-07-16T03:54:16.159Z,998.38
2018-07-16T03:55:16.155Z,998.41
2018-07-16T03:56:16.146Z,998.38
2018-07-16T03:57:16.143Z,998.38
2018-07-16T03:58:16.136Z,998.41
2018-07-16T03:59:16.131Z,998.37
2018-07-16T04:00:16.123Z,998.42
2018-07-16T04:01:16.118Z,998.38
2018-07-16T04:02:16.115Z,998.39
2018-07-16T04:03:16.108Z,998.37
2018-07-16T04:04:16.101Z,998.37
2018-07-16T04:05:16.100Z,998.38
2018-07-16T04:06:16.090Z,998.37
2018-07-16T04:07:16.085Z,998.39
2018-07-16T04:08:16.078Z,998.35
2018-07-16T04:09:16.073Z,998.34
2018-07-16T04:10:16.071Z,998.33
2018-07-16T04:11:16.062Z,998.31
2018-07-16T04:12:16.059Z,998.35
2018-07-16T04:13:16.052Z,998.32
2018-07-16T04:14:16.048Z,998.30
2018-07-16T04:15:16.042Z,998.31
2018-07-16T04:16:16.235Z,998.31
2018-07-16T04:17:16.028Z,998.31
2018-07-16T04:18:16.026Z,998.32
2018-07-16T04:19:16.018Z,998.34
2018-07-16T04:20:16.013Z,998.31
2018-07-16T04:21:16.006Z,998.37
2018-07-16T04:22:16.001Z,998.34
2018-07-16T04:23:15.996Z,998.38
2018-07-16T04:24:15.991Z,998.35
2018-07-16T04:25:15.985Z,998.35
2018-07-16T04:26:16.011Z,998.38
2018-07-16T04:27:15.974Z,998.39
2018-07-16T04:28:15.968Z,998.37
2018-07-16T04:29:15.962Z,998.34
2018-07-16T04:30:15.957Z,998.34
2018-07-16T04:31:15.952Z,998.35
2018-07-16T04:32:15.953Z,998.37
2018-07-16T04:33:15.940Z,998.37
2018-07-16T04:34:15.935Z,998.37
2018-07-16T04:35:15.935Z,998.36
2018-07-16T04:36:15.927Z,998.37
2018-07-16T04:37:15.918Z,998.42
2018-07-16T04:38:15.916Z,998.41
2018-07-16T04:39:15.912Z,998.39
2018-07-16T04:40:15.905Z,998.38
2018-07-16T04:41:15.896Z,998.40
2018-07-16T04:42:15.891Z,998.38
2018-07-16T04:43:15.889Z,998.40
2018-07-16T04:44:15.885Z,998.41
2018-07-16T04:45:15.874Z,998.39
2018-07-16T04:46:15.869Z,998.41
2018-07-16T04:47:15.864Z,998.43
2018-07-16T04:48:15.859Z,998.39
2018-07-16T04:49:15.853Z,998.39
2018-07-16T04:50:15.849Z,998.35
2018-07-16T04:51:15.845Z,998.37
2018-07-16T04:52:15.838Z,998.37
2018-07-16T04:53:15.831Z,998.34
2018-07-16T04:54:15.826Z,998.34
2018-07-16T04:55:15.822Z,998.34
2018-07-16T04:56:15.887Z,998.37
2018-07-16T04:57:15.811Z,998.38
2018-07-16T04:58:15.806Z,998.35
2018-07-16T04:59:15.803Z,998.33
2018-07-16T05:00:15.795Z,998.37
2018-07-16T05:01:15.791Z,998.37
2018-07-16T05:02:15.994Z,998.31
2018-07-16T05:03:15.823Z,998.38
2018-07-16T05:04:15.776Z,998.32
2018-07-16T05:05:15.771Z,998.37
2018-07-16T05:06:15.771Z,998.35
2018-07-16T05:07:15.761Z,998.32
2018-07-16T05:08:15.756Z,998.32
2018-07-16T05:09:15.751Z,998.37
2018-07-16T05:10:15.948Z,998.31
2018-07-16T05:11:15.943Z,998.35
2018-07-16T05:12:15.940Z,998.32
2018-07-16T05:13:15.937Z,998.36
2018-07-16T05:14:15.726Z,998.33
2018-07-16T05:15:15.726Z,998.34
2018-07-16T05:16:15.716Z,998.34
2018-07-16T05:17:15.712Z,998.30
2018-07-16T05:18:15.800Z,998.30
2018-07-16T05:19:15.701Z,998.30
2018-07-16T05:20:15.703Z,998.35
2018-07-16T05:21:15.691Z,998.37
2018-07-16T05:22:15.691Z,998.38
2018-07-16T05:23:15.687Z,998.38
2018-07-16T05:24:15.679Z,998.35
2018-07-16T05:25:15.675Z,998.34
2018-07-16T05:26:15.667Z,998.31
2018-07-16T05:27:15.665Z,998.35
2018-07-16T05:28:15.664Z,998.33
2018-07-16T05:29:15.654Z,998.34
2018-07-16T05:30:15.648Z,998.32
2018-07-16T05:31:15.648Z,998.32
2018-07-16T05:32:15.704Z,998.30
2018-07-16T05:33:15.633Z,998.29
2018-07-16T05:34:15.629Z,998.27
2018-07-16T05:35:15.623Z,998.22
2018-07-16T05:36:15.623Z,998.28
2018-07-16T05:37:15.614Z,998.29
2018-07-16T05:38:15.672Z,998.25
2018-07-16T05:39:15.605Z,998.29
2018-07-16T05:40:15.600Z,998.30
2018-07-16T05:41:15.596Z,998.25
2018-07-16T05:42:15.592Z,998.22
2018-07-16T05:43:15.588Z,998.25
2018-07-16T05:44:15.582Z,998.25
2018-07-16T05:45:15.578Z,998.28
2018-07-16T05:46:15.579Z,998.29
2018-07-16T05:47:15.574Z,998.28
2018-07-16T05:48:15.573Z,998.29
2018-07-16T05:49:15.561Z,998.32
2018-07-16T05:50:15.563Z,998.34
2018-07-16T05:51:15.755Z,998.35
2018-07-16T05:52:15.553Z,998.36
2018-07-16T05:53:15.545Z,998.35
2018-07-16T05:54:15.544Z,998.38
2018-07-16T05:55:15.537Z,998.39
2018-07-16T05:56:15.535Z,998.38
2018-07-16T05:57:15.529Z,998.37
2018-07-16T05:58:15.583Z,998.34
2018-07-16T05:59:15.521Z,998.36
2018-07-16T06:00:15.526Z,998.35
2018-07-16T06:01:15.514Z,998.34
2018-07-16T06:02:15.515Z,998.37
2018-07-16T06:03:15.708Z,998.31
2018-07-16T06:04:15.542Z,998.29
2018-07-16T06:05:15.701Z,998.37
2018-07-16T06:06:15.496Z,998.33
2018-07-16T06:07:15.492Z,998.35
2018-07-16T06:08:15.490Z,998.34
2018-07-16T06:09:15.485Z,998.36
2018-07-16T06:10:15.487Z,998.33
2018-07-16T06:11:15.478Z,998.33
2018-07-16T06:12:15.476Z,998.34
2018-07-16T06:13:15.471Z,998.35
2018-07-16T06:14:15.471Z,998.37
2018-07-16T06:15:15.466Z,998.38
2018-07-16T06:16:15.465Z,998.39
2018-07-16T06:17:15.459Z,998.34
2018-07-16T06:18:15.462Z,998.39
2018-07-16T06:19:15.455Z,998.36
2018-07-16T06:20:15.456Z,998.38
2018-07-16T06:21:15.448Z,998.39
2018-07-16T06:22:15.449Z,998.37
2018-07-16T06:23:15.444Z,998.41
2018-07-16T06:24:15.444Z,998.41
2018-07-16T06:25:15.438Z,998.37
2018-07-16T06:26:15.439Z,998.35
2018-07-16T06:27:15.493Z,998.37
2018-07-16T06:28:15.430Z,998.36
2018-07-16T06:29:15.427Z,998.34
2018-07-16T06:30:15.429Z,998.37
2018-07-16T06:31:15.423Z,998.28
2018-07-16T06:32:15.420Z,998.31
2018-07-16T06:33:15.418Z,998.28
2018-07-16T06:34:15.416Z,998.32
2018-07-16T06:35:15.414Z,998.29
2018-07-16T06:36:15.411Z,998.26
2018-07-16T06:37:15.409Z,998.28
2018-07-16T06:38:15.407Z,998.29
2018-07-16T06:39:15.405Z,998.30
2018-07-16T06:40:15.594Z,998.28
2018-07-16T06:41:15.875Z,998.28
2018-07-16T06:42:15.406Z,998.22
2018-07-16T06:43:15.399Z,998.25
2018-07-16T06:44:15.396Z,998.25
2018-07-16T06:45:15.397Z,998.28
2018-07-16T06:46:15.391Z,998.26
2018-07-16T06:47:15.390Z,998.28
2018-07-16T06:48:15.386Z,998.26
2018-07-16T06:49:15.388Z,998.24
2018-07-16T06:50:15.386Z,998.25
2018-07-16T06:51:15.383Z,998.30
2018-07-16T06:52:15.378Z,998.27
2018-07-16T06:53:15.377Z,998.23
2018-07-16T06:54:15.377Z,998.23
2018-07-16T06:55:15.419Z,998.18
2018-07-16T06:56:15.372Z,998.20
2018-07-16T06:57:15.370Z,998.19
2018-07-16T06:58:15.371Z,998.23
2018-07-16T06:59:15.371Z,998.15
2018-07-16T07:00:15.370Z,998.19
2018-07-16T07:01:15.364Z,998.17
2018-07-16T07:02:15.369Z,998.18
2018-07-16T07:03:15.368Z,998.20
2018-07-16T07:04:15.365Z,998.20
2018-07-16T07:05:15.359Z,998.18
2018-07-16T07:06:15.357Z,998.20
2018-07-16T07:07:15.358Z,998.19
2018-07-16T07:08:15.557Z,998.17
2018-07-16T07:09:15.358Z,998.16
2018-07-16T07:10:15.354Z,998.19
2018-07-16T07:11:15.352Z,998.18
2018-07-16T07:12:15.350Z,998.18
2018-07-16T07:13:15.349Z,998.20
2018-07-16T07:14:15.349Z,998.18
2018-07-16T07:15:15.348Z,998.19
2018-07-16T07:16:15.351Z,998.19
2018-07-16T07:17:15.346Z,998.22
2018-07-16T07:18:15.457Z,998.18
2018-07-16T07:19:15.351Z,998.15
2018-07-16T07:20:15.352Z,998.22
2018-07-16T07:21:15.350Z,998.22
2018-07-16T07:22:15.353Z,998.25
2018-07-16T07:23:15.354Z,998.27
2018-07-16T07:24:15.354Z,998.26
2018-07-16T07:25:15.360Z,998.25
2018-07-16T07:26:15.357Z,998.24
2018-07-16T07:27:15.367Z,998.24
2018-07-16T07:28:15.362Z,998.24
2018-07-16T07:29:15.566Z,998.20
2018-07-16T07:30:15.367Z,998.24
2018-07-16T07:31:15.370Z,998.25
2018-07-16T07:32:15.378Z,998.28
2018-07-16T07:33:15.379Z,998.29
2018-07-16T07:34:15.383Z,998.24
2018-07-16T07:35:15.443Z,998.25
2018-07-16T07:36:15.427Z,998.29
2018-07-16T07:37:15.401Z,998.31
2018-07-16T07:38:15.411Z,998.30
2018-07-16T07:39:15.416Z,998.34
2018-07-16T07:40:15.423Z,998.30
2018-07-16T07:41:15.437Z,998.31
2018-07-16T07:42:15.441Z,998.33
2018-07-16T07:43:15.453Z,998.30
2018-07-16T07:44:15.462Z,998.28
2018-07-16T07:45:15.467Z,998.32
2018-07-16T07:46:15.477Z,998.30
2018-07-16T07:47:15.488Z,998.31
2018-07-16T07:48:15.497Z,998.34
2018-07-16T07:49:15.507Z,998.36
2018-07-16T07:50:15.528Z,998.41
2018-07-16T07:51:15.530Z,998.41
2018-07-16T07:52:15.540Z,998.38
2018-07-16T07:53:15.754Z,998.41
2018-07-16T07:54:15.716Z,998.34
2018-07-16T07:55:15.909Z,998.32
2018-07-16T07:56:15.590Z,998.38
2018-07-16T07:57:15.599Z,998.37
2018-07-16T07:58:15.611Z,998.35
2018-07-16T07:59:15.624Z,998.34
2018-07-16T08:00:15.638Z,998.31
2018-07-16T08:01:15.652Z,998.34
2018-07-16T08:02:15.663Z,998.35
2018-07-16T08:03:15.743Z,998.31
2018-07-16T08:04:15.688Z,998.33
2018-07-16T08:05:15.702Z,998.40
2018-07-16T08:06:15.717Z,998.38
2018-07-16T08:07:15.733Z,998.36
2018-07-16T08:08:15.743Z,998.38
2018-07-16T08:09:15.762Z,998.32
2018-07-16T08:10:15.772Z,998.37
2018-07-16T08:11:15.792Z,998.37
2018-07-16T08:12:15.801Z,998.34
2018-07-16T08:13:15.815Z,998.29
2018-07-16T08:14:15.830Z,998.28
2018-07-16T08:15:15.845Z,998.29
2018-07-16T08:16:15.862Z,998.29
2018-07-16T08:17:15.874Z,998.30
2018-07-16T08:18:15.892Z,998.29
2018-07-16T08:19:15.905Z,998.28
2018-07-16T08:20:15.920Z,998.26
2018-07-16T08:21:15.939Z,998.27
2018-07-16T08:22:15.951Z,998.28
2018-07-16T08:23:15.969Z,998.28
2018-07-16T08:24:15.987Z,998.25
2018-07-16T08:25:16.001Z,998.29
2018-07-16T08:26:16.016Z,998.28
2018-07-16T08:27:16.037Z,998.23
2018-07-16T08:28:16.198Z,998.26
2018-07-16T08:29:16.061Z,998.30
2018-07-16T08:30:16.076Z,998.27
2018-07-16T08:31:16.093Z,998.29
2018-07-16T08:32:16.108Z,998.30
2018-07-16T08:33:16.124Z,998.25
2018-07-16T08:34:16.140Z,998.28
2018-07-16T08:35:16.156Z,998.28
2018-07-16T08:36:16.171Z,998.29
2018-07-16T08:37:16.190Z,998.26
2018-07-16T08:38:16.205Z,998.31
2018-07-16T08:39:16.221Z,998.32
2018-07-16T08:40:16.235Z,998.32
2018-07-16T08:41:16.454Z,998.29
2018-07-16T08:42:16.274Z,998.30
2018-07-16T08:43:16.284Z,998.31
2018-07-16T08:44:16.300Z,998.30
2018-07-16T08:45:16.317Z,998.32
2018-07-16T08:46:16.371Z,998.30
2018-07-16T08:47:16.351Z,998.29
2018-07-16T08:48:16.372Z,998.33
2018-07-16T08:49:16.384Z,998.27
2018-07-16T08:50:16.651Z,998.30
2018-07-16T08:51:16.419Z,998.31
2018-07-16T08:52:16.437Z,998.33
2018-07-16T08:53:16.460Z,998.34
2018-07-16T08:54:16.474Z,998.30
2018-07-16T08:55:16.491Z,998.35
2018-07-16T08:56:16.509Z,998.30
2018-07-16T08:57:16.523Z,998.32
2018-07-16T08:58:16.547Z,998.33
2018-07-16T08:59:16.637Z,998.34
2018-07-16T09:00:16.576Z,998.31
2018-07-16T09:01:16.594Z,998.28
2018-07-16T09:02:16.613Z,998.29
2018-07-16T09:03:16.630Z,998.28
2018-07-16T09:04:16.646Z,998.25
2018-07-16T09:05:16.672Z,998.26
2018-07-16T09:06:16.680Z,998.24
2018-07-16T09:07:16.720Z,998.29
2018-07-16T09:08:16.715Z,998.29
2018-07-16T09:09:16.737Z,998.31
2018-07-16T09:10:16.753Z,998.29
2018-07-16T09:11:17.029Z,998.27
2018-07-16T09:12:16.784Z,998.31
2018-07-16T09:13:16.828Z,998.26
2018-07-16T09:14:16.823Z,998.23
2018-07-16T09:16:16.857Z,998.20
2018-07-16T09:17:16.879Z,998.22
2018-07-16T09:18:16.891Z,998.21
2018-07-16T09:19:16.953Z,998.19
2018-07-16T09:20:16.926Z,998.24
2018-07-16T09:21:16.947Z,998.24
2018-07-16T09:22:16.963Z,998.22
2018-07-16T09:23:16.982Z,998.22
2018-07-16T09:24:16.999Z,998.24
2018-07-16T09:25:17.018Z,998.28
2018-07-16T09:26:17.037Z,998.26
2018-07-16T09:27:17.055Z,998.25
2018-07-16T09:28:17.073Z,998.25
2018-07-16T09:29:17.091Z,998.21
2018-07-16T09:30:17.110Z,998.19
2018-07-16T09:31:17.128Z,998.23
2018-07-16T09:32:17.202Z,998.22
2018-07-16T09:33:17.168Z,998.21
2018-07-16T09:34:17.184Z,998.22
2018-07-16T09:35:17.405Z,998.25
2018-07-16T09:36:17.225Z,998.18
2018-07-16T09:37:17.241Z,998.19
2018-07-16T09:38:17.259Z,998.20
2018-07-16T09:39:17.284Z,998.18
2018-07-16T09:40:17.296Z,998.20
2018-07-16T09:41:17.333Z,998.21
2018-07-16T09:42:17.334Z,998.22
2018-07-16T09:43:17.354Z,998.13
2018-07-16T09:44:17.440Z,998.13
2018-07-16T09:45:17.395Z,998.15
2018-07-16T09:46:17.410Z,998.13
2018-07-16T09:47:17.435Z,998.13
2018-07-16T09:48:17.448Z,998.16
2018-07-16T09:49:17.467Z,998.16
2018-07-16T09:50:17.551Z,998.17
2018-07-16T09:51:17.507Z,998.17
2018-07-16T09:52:17.528Z,998.17
2018-07-16T09:53:17.545Z,998.16
2018-07-16T09:54:17.567Z,998.19
2018-07-16T09:55:17.586Z,998.15
2018-07-16T09:56:17.622Z,998.13
2018-07-16T09:57:17.631Z,998.14
2018-07-16T09:58:17.646Z,998.13
2018-07-16T09:59:17.673Z,998.14
2018-07-16T10:00:17.683Z,998.14
2018-07-16T10:01:17.709Z,998.14
2018-07-16T10:02:17.723Z,998.12
2018-07-16T10:03:17.746Z,998.10
2018-07-16T10:04:17.767Z,998.10
2018-07-16T10:05:17.782Z,998.11
2018-07-16T10:06:17.801Z,998.14
2018-07-16T10:07:17.821Z,998.12
2018-07-16T10:08:17.894Z,998.12
2018-07-16T10:09:17.866Z,998.14
2018-07-16T10:10:17.879Z,998.12
2018-07-16T10:11:17.905Z,998.12
2018-07-16T10:12:17.922Z,998.16
2018-07-16T10:13:17.942Z,998.11
2018-07-16T10:14:17.963Z,998.11
2018-07-16T10:15:17.980Z,998.09
2018-07-16T10:16:17.999Z,998.12
2018-07-16T10:17:18.019Z,998.10
2018-07-16T10:18:18.043Z,998.14
2018-07-16T10:19:18.063Z,998.13
2018-07-16T10:20:18.082Z,998.16
2018-07-16T10:21:18.102Z,998.13
2018-07-16T10:22:18.119Z,998.11
2018-07-16T10:23:18.140Z,998.18
2018-07-16T10:24:18.158Z,998.15
2018-07-16T10:25:18.178Z,998.17
2018-07-16T10:26:18.406Z,998.16
2018-07-16T10:27:18.218Z,998.14
2018-07-16T10:28:18.236Z,998.14
2018-07-16T10:29:18.261Z,998.17
2018-07-16T10:30:18.280Z,998.14
2018-07-16T10:31:18.300Z,998.13
2018-07-16T10:32:18.316Z,998.13
2018-07-16T10:33:18.339Z,998.12
2018-07-16T10:34:18.559Z,998.09
2018-07-16T10:35:18.377Z,998.19
2018-07-16T10:36:18.397Z,998.16
2018-07-16T10:37:18.417Z,998.15
2018-07-16T10:38:18.442Z,998.22
2018-07-16T10:39:18.490Z,998.18
2018-07-16T10:40:18.482Z,998.19
2018-07-16T10:41:18.501Z,998.17
2018-07-16T10:42:18.519Z,998.18
2018-07-16T10:43:18.539Z,998.17
2018-07-16T10:44:18.558Z,998.13
2018-07-16T10:45:18.579Z,998.11
2018-07-16T10:46:18.598Z,998.13
2018-07-16T10:47:18.623Z,998.12
2018-07-16T10:48:18.642Z,998.10
2018-07-16T10:49:18.659Z,998.10
2018-07-16T10:50:18.687Z,998.10
2018-07-16T10:51:18.703Z,998.08
2018-07-16T10:52:18.718Z,998.09
2018-07-16T10:53:18.741Z,998.06
2018-07-16T10:54:18.963Z,998.01
2018-07-16T10:55:18.981Z,998.09
2018-07-16T10:56:18.797Z,998.10
2018-07-16T10:57:18.817Z,998.08
2018-07-16T10:58:18.838Z,998.09
2018-07-16T10:59:18.858Z,998.12
2018-07-16T11:00:18.880Z,998.03
2018-07-16T11:01:18.897Z,998.06
2018-07-16T11:02:18.920Z,998.09
2018-07-16T11:03:18.938Z,998.03
2018-07-16T11:04:18.957Z,998.06
2018-07-16T11:05:18.991Z,998.04
2018-07-16T11:06:19.006Z,998.03
2018-07-16T11:07:19.024Z,998.05
2018-07-16T11:08:19.038Z,998.04
2018-07-16T11:09:19.064Z,998.01
2018-07-16T11:10:19.083Z,998.04
2018-07-16T11:11:19.099Z,998.02
2018-07-16T11:12:19.124Z,998.07
2018-07-16T11:13:19.342Z,998.00
2018-07-16T11:14:19.362Z,997.99
2018-07-16T11:15:19.180Z,998.00
2018-07-16T11:16:19.205Z,998.01
2018-07-16T11:17:19.221Z,998.01
2018-07-16T11:18:19.243Z,997.96
2018-07-16T11:19:19.265Z,997.97
2018-07-16T11:20:19.282Z,997.96
2018-07-16T11:21:19.302Z,997.96
2018-07-16T11:22:19.323Z,997.94
2018-07-16T11:23:19.343Z,997.92
2018-07-16T11:24:19.567Z,997.92
2018-07-16T11:25:19.589Z,997.93
2018-07-16T11:26:19.403Z,997.93
2018-07-16T11:27:19.425Z,997.86
2018-07-16T11:28:19.448Z,997.84
2018-07-16T11:29:19.468Z,997.88
2018-07-16T11:30:19.484Z,997.88
2018-07-16T11:31:19.515Z,997.84
2018-07-16T11:32:19.525Z,997.83
2018-07-16T11:33:19.549Z,997.85
2018-07-16T11:34:19.566Z,997.85
2018-07-16T11:35:19.651Z,997.86
2018-07-16T11:36:19.601Z,997.84
2018-07-16T11:37:19.625Z,997.81
2018-07-16T11:38:19.645Z,997.81
2018-07-16T11:39:19.862Z,997.82
2018-07-16T11:40:19.679Z,997.83
2018-07-16T11:41:19.701Z,997.80
2018-07-16T11:42:19.724Z,997.82
2018-07-16T11:43:19.735Z,997.79
2018-07-16T11:44:19.758Z,997.82
2018-07-16T11:45:19.772Z,997.82
2018-07-16T11:46:19.848Z,997.77
2018-07-16T11:47:19.811Z,997.78
2018-07-16T11:48:19.834Z,997.77
2018-07-16T11:49:20.052Z,997.75
2018-07-16T11:50:19.871Z,997.74
2018-07-16T11:51:19.891Z,997.71
2018-07-16T11:52:19.981Z,997.68
2018-07-16T11:53:19.926Z,997.66
2018-07-16T11:54:19.948Z,997.67
2018-07-16T11:55:19.966Z,997.62
2018-07-16T11:56:19.985Z,997.60
2018-07-16T11:57:20.007Z,997.63
2018-07-16T11:58:20.028Z,997.66
2018-07-16T11:59:20.093Z,997.63
2018-07-16T12:00:20.064Z,997.63
2018-07-16T12:01:20.085Z,997.59
2018-07-16T12:02:20.106Z,997.58
2018-07-16T12:03:20.186Z,997.57
2018-07-16T12:04:20.144Z,997.57
2018-07-16T12:05:20.164Z,997.55
2018-07-16T12:06:20.185Z,997.51
2018-07-16T12:07:20.209Z,997.52
2018-07-16T12:08:20.227Z,997.47
2018-07-16T12:09:20.243Z,997.47
2018-07-16T12:10:20.266Z,997.49
2018-07-16T12:11:20.285Z,997.49
2018-07-16T12:12:20.339Z,997.41
2018-07-16T12:13:20.318Z,997.48
2018-07-16T12:14:20.341Z,997.44
2018-07-16T12:15:20.356Z,997.45
2018-07-16T12:16:20.371Z,997.43
2018-07-16T12:17:20.390Z,997.41
2018-07-16T12:18:20.610Z,997.37
2018-07-16T12:19:20.425Z,997.38
2018-07-16T12:20:20.443Z,997.33
2018-07-16T12:21:20.463Z,997.26
2018-07-16T12:22:20.478Z,997.28
2018-07-16T12:23:20.499Z,997.26
2018-07-16T12:24:20.514Z,997.31
2018-07-16T12:25:20.536Z,997.33
2018-07-16T12:26:20.554Z,997.29
2018-07-16T12:27:20.572Z,997.31
2018-07-16T12:28:20.585Z,997.29
2018-07-16T12:29:20.605Z,997.27